PWSweather.com
Personal Weather Stations
Station Observations
KCOFORTM15
Fort Morgan, CO

Fort Morgan, CO

Lat: 40.26, Lon: -103.784

Elevation: 4724

Station Type:

High Low Average
Temperature 36.7°F2.6°C 23.5°F-4.7°C 29.0°F-1.7°C
Dew Point 30.6°F-0.8°C 16.3°F-8.7°C 21.3°F-5.9°C
Winds 11.0 mph 17.7 kmh Calm Calm 1.0 mph SSW1.6 kmh SSW
Wind Gusts 17.2 mph27.7 kmh -- 2.0 mph3.2 kmh
Humidity 89% 52% 74%
Pressure 29.83 in1010.2 mb 29.58 in1001.7 mb -
Precipitation 0.00 in0.0 mm - -
Hour Temp Dew Point Humidity Winds Wind Gusts Pressure Precip Precip Rate Daily Precip Total
12:00 AM 34.3°F1.3°C 30.6°F-0.8°C 86% 3.8 mph NNE6.1 kmh NNE 5.8 mph9.3 kmh 29.58 in1001.7 mb 0.00 in0.0 mm 0.00 in0.0 mm 0.00 in0.0 mm
12:05 AM 34.0°F1.1°C 30.4°F-0.9°C 87% 3.4 mph N5.5 kmh N 4.5 mph7.2 kmh 29.58 in1001.7 mb 0.00 in0.0 mm 0.00 in0.0 mm 0.00 in0.0 mm
12:10 AM 33.6°F0.9°C 29.3°F-1.5°C 84% 4.9 mph NE7.9 kmh NE 5.8 mph9.3 kmh 29.58 in1001.7 mb 0.00 in0.0 mm 0.00 in0.0 mm 0.00 in0.0 mm
12:15 AM 33.1°F0.6°C 29.1°F-1.6°C 85% 4.5 mph NNE7.2 kmh NNE 5.8 mph9.3 kmh 29.58 in1001.7 mb 0.00 in0.0 mm 0.00 in0.0 mm 0.00 in0.0 mm
12:20 AM 32.7°F0.4°C 28.4°F-2.0°C 84% 4.5 mph N7.2 kmh N 5.8 mph9.3 kmh 29.58 in1001.7 mb 0.00 in0.0 mm 0.00 in0.0 mm 0.00 in0.0 mm
12:25 AM 32.5°F0.3°C 28.6°F-1.9°C 85% 2.9 mph N4.7 kmh N 4.5 mph7.2 kmh 29.58 in1001.7 mb 0.00 in0.0 mm 0.00 in0.0 mm 0.00 in0.0 mm
12:30 AM 32.4°F0.2°C 28.4°F-2.0°C 85% 5.8 mph NW9.3 kmh NW 6.9 mph11.1 kmh 29.58 in1001.7 mb 0.00 in0.0 mm 0.00 in0.0 mm 0.00 in0.0 mm
12:35 AM 32.4°F0.2°C 27.1°F-2.7°C 81% 9.2 mph NW14.8 kmh NW 12.5 mph20.1 kmh 29.59 in1002.0 mb 0.00 in0.0 mm 0.00 in0.0 mm 0.00 in0.0 mm
12:40 AM 32.2°F0.1°C 27.0°F-2.8°C 81% 5.4 mph NNE8.7 kmh NNE 5.8 mph9.3 kmh 29.60 in1002.4 mb 0.00 in0.0 mm 0.00 in0.0 mm 0.00 in0.0 mm
12:45 AM 31.8°F-0.1°C 26.4°F-3.1°C 80% 9.6 mph W15.4 kmh W 12.5 mph20.1 kmh 29.60 in1002.4 mb 0.00 in0.0 mm 0.00 in0.0 mm 0.00 in0.0 mm
12:50 AM 31.6°F-0.2°C 25.9°F-3.4°C 79% 11.0 mph N17.7 kmh N 17.2 mph27.7 kmh 29.59 in1002.0 mb 0.00 in0.0 mm 0.00 in0.0 mm 0.00 in0.0 mm
12:55 AM 31.3°F-0.4°C 25.5°F-3.6°C 79% 10.5 mph NW16.9 kmh NW 13.6 mph21.9 kmh 29.60 in1002.4 mb 0.00 in0.0 mm 0.00 in0.0 mm 0.00 in0.0 mm
01:00 AM 30.9°F-0.6°C 25.7°F-3.5°C 81% 7.6 mph NE12.2 kmh NE 10.3 mph16.6 kmh 29.60 in1002.4 mb 0.00 in0.0 mm 0.00 in0.0 mm 0.00 in0.0 mm
01:05 AM 30.7°F-0.7°C 25.3°F-3.7°C 80% 11.0 mph NW17.7 kmh NW 12.5 mph20.1 kmh 29.60 in1002.4 mb 0.00 in0.0 mm 0.00 in0.0 mm 0.00 in0.0 mm
01:10 AM 30.6°F-0.8°C 25.2°F-3.8°C 80% 7.8 mph W12.6 kmh W 10.3 mph16.6 kmh 29.60 in1002.4 mb 0.00 in0.0 mm 0.00 in0.0 mm 0.00 in0.0 mm
01:15 AM 30.2°F-1.0°C 25.2°F-3.8°C 81% 6.9 mph NW11.1 kmh NW 10.3 mph16.6 kmh 29.61 in1002.7 mb 0.00 in0.0 mm 0.00 in0.0 mm 0.00 in0.0 mm
01:20 AM 30.0°F-1.1°C 25.2°F-3.8°C 82% 6.0 mph NW9.7 kmh NW 9.2 mph14.8 kmh 29.61 in1002.7 mb 0.00 in0.0 mm 0.00 in0.0 mm 0.00 in0.0 mm
01:25 AM 29.8°F-1.2°C 25.2°F-3.8°C 83% 2.5 mph NW4.0 kmh NW 3.4 mph5.5 kmh 29.61 in1002.7 mb 0.00 in0.0 mm 0.00 in0.0 mm 0.00 in0.0 mm
01:30 AM 29.5°F-1.4°C 24.6°F-4.1°C 82% 6.5 mph NE10.5 kmh NE 9.2 mph14.8 kmh 29.62 in1003.0 mb 0.00 in0.0 mm 0.00 in0.0 mm 0.00 in0.0 mm
01:35 AM 29.5°F-1.4°C 24.4°F-4.2°C 81% 8.1 mph NNE13.0 kmh NNE 9.2 mph14.8 kmh 29.62 in1003.0 mb 0.00 in0.0 mm 0.00 in0.0 mm 0.00 in0.0 mm
01:40 AM 29.1°F-1.6°C 23.0°F-5.0°C 78% 6.9 mph NNW11.1 kmh NNW 10.3 mph16.6 kmh 29.62 in1003.0 mb 0.00 in0.0 mm 0.00 in0.0 mm 0.00 in0.0 mm
01:45 AM 28.8°F-1.8°C 23.0°F-5.0°C 79% 5.4 mph W8.7 kmh W 10.3 mph16.6 kmh 29.63 in1003.4 mb 0.00 in0.0 mm 0.00 in0.0 mm 0.00 in0.0 mm
01:50 AM 28.4°F-2.0°C 23.0°F-5.0°C 80% 4.5 mph W7.2 kmh W 5.8 mph9.3 kmh 29.63 in1003.4 mb 0.00 in0.0 mm 0.00 in0.0 mm 0.00 in0.0 mm
01:55 AM 28.0°F-2.2°C 22.6°F-5.2°C 80% 5.4 mph NE8.7 kmh NE 8.1 mph13.0 kmh 29.64 in1003.7 mb 0.00 in0.0 mm 0.00 in0.0 mm 0.00 in0.0 mm
02:00 AM 27.9°F-2.3°C 22.1°F-5.5°C 79% 5.6 mph NNW9.0 kmh NNW 6.9 mph11.1 kmh 29.63 in1003.4 mb 0.00 in0.0 mm 0.00 in0.0 mm 0.00 in0.0 mm
02:05 AM 27.7°F-2.4°C 21.9°F-5.6°C 79% 5.4 mph N8.7 kmh N 8.1 mph13.0 kmh 29.63 in1003.4 mb 0.00 in0.0 mm 0.00 in0.0 mm 0.00 in0.0 mm
02:10 AM 27.5°F-2.5°C 22.1°F-5.5°C 80% 8.7 mph NNW14.0 kmh NNW 12.5 mph20.1 kmh 29.64 in1003.7 mb 0.00 in0.0 mm 0.00 in0.0 mm 0.00 in0.0 mm
02:15 AM 27.3°F-2.6°C 21.9°F-5.6°C 80% 6.7 mph NNW10.8 kmh NNW 9.2 mph14.8 kmh 29.63 in1003.4 mb 0.00 in0.0 mm 0.00 in0.0 mm 0.00 in0.0 mm
02:20 AM 27.1°F-2.7°C 22.1°F-5.5°C 81% 6.0 mph NE9.7 kmh NE 8.1 mph13.0 kmh 29.64 in1003.7 mb 0.00 in0.0 mm 0.00 in0.0 mm 0.00 in0.0 mm
02:25 AM 27.1°F-2.7°C 22.3°F-5.4°C 82% 3.4 mph NE5.5 kmh NE 5.8 mph9.3 kmh 29.63 in1003.4 mb 0.00 in0.0 mm 0.00 in0.0 mm 0.00 in0.0 mm
02:30 AM 27.3°F-2.6°C 21.9°F-5.6°C 80% 3.8 mph SW6.1 kmh SW 5.8 mph9.3 kmh 29.64 in1003.7 mb 0.00 in0.0 mm 0.00 in0.0 mm 0.00 in0.0 mm
02:35 AM 27.5°F-2.5°C 22.1°F-5.5°C 80% 4.3 mph NNW6.9 kmh NNW 8.1 mph13.0 kmh 29.63 in1003.4 mb 0.00 in0.0 mm 0.00 in0.0 mm 0.00 in0.0 mm
02:40 AM 27.5°F-2.5°C 21.7°F-5.7°C 79% 7.4 mph N11.9 kmh N 9.2 mph14.8 kmh 29.64 in1003.7 mb 0.00 in0.0 mm 0.00 in0.0 mm 0.00 in0.0 mm
02:45 AM 27.3°F-2.6°C 21.0°F-6.1°C 77% 5.4 mph NE8.7 kmh NE 8.1 mph13.0 kmh 29.62 in1003.0 mb 0.00 in0.0 mm 0.00 in0.0 mm 0.00 in0.0 mm
02:50 AM 27.0°F-2.8°C 21.0°F-6.1°C 78% 6.5 mph NW10.5 kmh NW 8.1 mph13.0 kmh 29.63 in1003.4 mb 0.00 in0.0 mm 0.00 in0.0 mm 0.00 in0.0 mm
02:55 AM 27.0°F-2.8°C 20.7°F-6.3°C 77% 7.4 mph NNE11.9 kmh NNE 11.4 mph18.3 kmh 29.63 in1003.4 mb 0.00 in0.0 mm 0.00 in0.0 mm 0.00 in0.0 mm
03:00 AM 26.8°F-2.9°C 20.8°F-6.2°C 78% 2.9 mph ENE4.7 kmh ENE 5.8 mph9.3 kmh 29.65 in1004.1 mb 0.00 in0.0 mm 0.00 in0.0 mm 0.00 in0.0 mm
03:05 AM 26.6°F-3.0°C 20.1°F-6.6°C 76% 3.8 mph WSW6.1 kmh WSW 6.9 mph11.1 kmh 29.64 in1003.7 mb 0.00 in0.0 mm 0.00 in0.0 mm 0.00 in0.0 mm
03:10 AM 26.8°F-2.9°C 19.9°F-6.7°C 75% 3.6 mph N5.8 kmh N 9.2 mph14.8 kmh 29.65 in1004.1 mb 0.00 in0.0 mm 0.00 in0.0 mm 0.00 in0.0 mm
03:15 AM 26.8°F-2.9°C 19.9°F-6.7°C 75% 6.9 mph WSW11.1 kmh WSW 9.2 mph14.8 kmh 29.65 in1004.1 mb 0.00 in0.0 mm 0.00 in0.0 mm 0.00 in0.0 mm
03:20 AM 26.8°F-2.9°C 19.6°F-6.9°C 74% 1.3 mph WSW2.1 kmh WSW 2.2 mph3.5 kmh 29.65 in1004.1 mb 0.00 in0.0 mm 0.00 in0.0 mm 0.00 in0.0 mm
03:25 AM 26.6°F-3.0°C 19.8°F-6.8°C 75% Calm Calm -- 29.66 in1004.4 mb 0.00 in0.0 mm 0.00 in0.0 mm 0.00 in0.0 mm
03:30 AM 26.4°F-3.1°C 19.6°F-6.9°C 75% 0.4 mph S0.6 kmh S 1.1 mph1.8 kmh 29.65 in1004.1 mb 0.00 in0.0 mm 0.00 in0.0 mm 0.00 in0.0 mm
03:35 AM 26.6°F-3.0°C 19.8°F-6.8°C 75% 0.2 mph SSW0.3 kmh SSW 1.1 mph1.8 kmh 29.66 in1004.4 mb 0.00 in0.0 mm 0.00 in0.0 mm 0.00 in0.0 mm
03:40 AM 27.0°F-2.8°C 19.8°F-6.8°C 74% 2.5 mph SE4.0 kmh SE 3.4 mph5.5 kmh 29.66 in1004.4 mb 0.00 in0.0 mm 0.00 in0.0 mm 0.00 in0.0 mm
03:45 AM 27.1°F-2.7°C 19.6°F-6.9°C 73% 2.0 mph NE3.2 kmh NE 3.4 mph5.5 kmh 29.66 in1004.4 mb 0.00 in0.0 mm 0.00 in0.0 mm 0.00 in0.0 mm
03:50 AM 27.1°F-2.7°C 19.9°F-6.7°C 74% 0.7 mph S1.1 kmh S 1.1 mph1.8 kmh 29.67 in1004.7 mb 0.00 in0.0 mm 0.00 in0.0 mm 0.00 in0.0 mm
03:55 AM 27.1°F-2.7°C 19.2°F-7.1°C 72% 1.8 mph SW2.9 kmh SW 3.4 mph5.5 kmh 29.68 in1005.1 mb 0.00 in0.0 mm 0.00 in0.0 mm 0.00 in0.0 mm
04:00 AM 27.3°F-2.6°C 19.4°F-7.0°C 72% 0.2 mph SW0.3 kmh SW 1.1 mph1.8 kmh 29.67 in1004.7 mb 0.00 in0.0 mm 0.00 in0.0 mm 0.00 in0.0 mm
04:05 AM 27.5°F-2.5°C 19.6°F-6.9°C 72% 2.0 mph W3.2 kmh W 2.2 mph3.5 kmh 29.68 in1005.1 mb 0.00 in0.0 mm 0.00 in0.0 mm 0.00 in0.0 mm
04:10 AM 27.5°F-2.5°C 19.2°F-7.1°C 71% 0.7 mph SSW1.1 kmh SSW 1.1 mph1.8 kmh 29.68 in1005.1 mb 0.00 in0.0 mm 0.00 in0.0 mm 0.00 in0.0 mm
04:15 AM 27.3°F-2.6°C 19.4°F-7.0°C 72% 0.4 mph SSW0.6 kmh SSW 1.1 mph1.8 kmh 29.68 in1005.1 mb 0.00 in0.0 mm 0.00 in0.0 mm 0.00 in0.0 mm
04:20 AM 27.3°F-2.6°C 19.4°F-7.0°C 72% 0.4 mph S0.6 kmh S 1.1 mph1.8 kmh 29.68 in1005.1 mb 0.00 in0.0 mm 0.00 in0.0 mm 0.00 in0.0 mm
04:25 AM 27.3°F-2.6°C 19.4°F-7.0°C 72% 0.4 mph SW0.6 kmh SW 1.1 mph1.8 kmh 29.68 in1005.1 mb 0.00 in0.0 mm 0.00 in0.0 mm 0.00 in0.0 mm
04:30 AM 27.3°F-2.6°C 18.5°F-7.5°C 69% Calm Calm -- 29.69 in1005.4 mb 0.00 in0.0 mm 0.00 in0.0 mm 0.00 in0.0 mm
04:35 AM 27.3°F-2.6°C 18.5°F-7.5°C 69% Calm Calm -- 29.69 in1005.4 mb 0.00 in0.0 mm 0.00 in0.0 mm 0.00 in0.0 mm
04:40 AM 27.3°F-2.6°C 18.1°F-7.7°C 68% Calm Calm -- 29.69 in1005.4 mb 0.00 in0.0 mm 0.00 in0.0 mm 0.00 in0.0 mm
04:45 AM 27.5°F-2.5°C 18.3°F-7.6°C 68% 4.0 mph WNW6.4 kmh WNW 4.5 mph7.2 kmh 29.69 in1005.4 mb 0.00 in0.0 mm 0.00 in0.0 mm 0.00 in0.0 mm
04:50 AM 27.5°F-2.5°C 18.0°F-7.8°C 67% 3.1 mph S5.0 kmh S 4.5 mph7.2 kmh 29.70 in1005.8 mb 0.00 in0.0 mm 0.00 in0.0 mm 0.00 in0.0 mm
04:55 AM 27.7°F-2.4°C 18.1°F-7.7°C 67% 3.4 mph NW5.5 kmh NW 4.5 mph7.2 kmh 29.70 in1005.8 mb 0.00 in0.0 mm 0.00 in0.0 mm 0.00 in0.0 mm
05:00 AM 27.7°F-2.4°C 18.1°F-7.7°C 67% 1.6 mph SSW2.6 kmh SSW 2.2 mph3.5 kmh 29.70 in1005.8 mb 0.00 in0.0 mm 0.00 in0.0 mm 0.00 in0.0 mm
05:05 AM 27.7°F-2.4°C 18.5°F-7.5°C 68% 0.2 mph SW0.3 kmh SW 1.1 mph1.8 kmh 29.70 in1005.8 mb 0.00 in0.0 mm 0.00 in0.0 mm 0.00 in0.0 mm
05:10 AM 27.7°F-2.4°C 18.5°F-7.5°C 68% 2.2 mph SW3.5 kmh SW 3.4 mph5.5 kmh 29.71 in1006.1 mb 0.00 in0.0 mm 0.00 in0.0 mm 0.00 in0.0 mm
05:15 AM 27.7°F-2.4°C 18.5°F-7.5°C 68% 0.9 mph SSW1.4 kmh SSW 1.1 mph1.8 kmh 29.71 in1006.1 mb 0.00 in0.0 mm 0.00 in0.0 mm 0.00 in0.0 mm
05:20 AM 27.7°F-2.4°C 18.9°F-7.3°C 69% 1.8 mph NW2.9 kmh NW 2.2 mph3.5 kmh 29.72 in1006.4 mb 0.00 in0.0 mm 0.00 in0.0 mm 0.00 in0.0 mm
05:25 AM 27.9°F-2.3°C 19.0°F-7.2°C 69% 2.0 mph WSW3.2 kmh WSW 2.2 mph3.5 kmh 29.71 in1006.1 mb 0.00 in0.0 mm 0.00 in0.0 mm 0.00 in0.0 mm
05:30 AM 27.7°F-2.4°C 19.4°F-7.0°C 71% 0.7 mph SW1.1 kmh SW 1.1 mph1.8 kmh 29.72 in1006.4 mb 0.00 in0.0 mm 0.00 in0.0 mm 0.00 in0.0 mm
05:35 AM 27.7°F-2.4°C 18.9°F-7.3°C 69% 1.3 mph WSW2.1 kmh WSW 2.2 mph3.5 kmh 29.71 in1006.1 mb 0.00 in0.0 mm 0.00 in0.0 mm 0.00 in0.0 mm
05:40 AM 27.7°F-2.4°C 18.9°F-7.3°C 69% Calm Calm -- 29.71 in1006.1 mb 0.00 in0.0 mm 0.00 in0.0 mm 0.00 in0.0 mm
05:45 AM 27.7°F-2.4°C 18.1°F-7.7°C 67% 0.9 mph SSW1.4 kmh SSW 2.2 mph3.5 kmh 29.73 in1006.8 mb 0.00 in0.0 mm 0.00 in0.0 mm 0.00 in0.0 mm
05:50 AM 27.5°F-2.5°C 18.7°F-7.4°C 69% Calm Calm -- 29.73 in1006.8 mb 0.00 in0.0 mm 0.00 in0.0 mm 0.00 in0.0 mm
05:55 AM 27.3°F-2.6°C 18.5°F-7.5°C 69% 1.1 mph SSW1.8 kmh SSW 1.1 mph1.8 kmh 29.73 in1006.8 mb 0.00 in0.0 mm 0.00 in0.0 mm 0.00 in0.0 mm
06:00 AM 27.3°F-2.6°C 18.9°F-7.3°C 70% 1.3 mph SW2.1 kmh SW 2.2 mph3.5 kmh 29.72 in1006.4 mb 0.00 in0.0 mm 0.00 in0.0 mm 0.00 in0.0 mm
06:05 AM 27.1°F-2.7°C 18.7°F-7.4°C 70% 0.7 mph SW1.1 kmh SW 1.1 mph1.8 kmh 29.72 in1006.4 mb 0.00 in0.0 mm 0.00 in0.0 mm 0.00 in0.0 mm
06:10 AM 26.8°F-2.9°C 18.7°F-7.4°C 71% 2.2 mph WSW3.5 kmh WSW 3.4 mph5.5 kmh 29.72 in1006.4 mb 0.00 in0.0 mm 0.00 in0.0 mm 0.00 in0.0 mm
06:15 AM 26.6°F-3.0°C 18.5°F-7.5°C 71% 0.2 mph SSW0.3 kmh SSW 1.1 mph1.8 kmh 29.72 in1006.4 mb 0.00 in0.0 mm 0.00 in0.0 mm 0.00 in0.0 mm
06:20 AM 26.4°F-3.1°C 18.3°F-7.6°C 71% 1.1 mph SW1.8 kmh SW 1.1 mph1.8 kmh 29.72 in1006.4 mb 0.00 in0.0 mm 0.00 in0.0 mm 0.00 in0.0 mm
06:25 AM 26.2°F-3.2°C 18.5°F-7.5°C 72% 0.9 mph WSW1.4 kmh WSW 2.2 mph3.5 kmh 29.73 in1006.8 mb 0.00 in0.0 mm 0.00 in0.0 mm 0.00 in0.0 mm
06:30 AM 26.2°F-3.2°C 18.5°F-7.5°C 72% 1.3 mph SSW2.1 kmh SSW 2.2 mph3.5 kmh 29.73 in1006.8 mb 0.00 in0.0 mm 0.00 in0.0 mm 0.00 in0.0 mm
06:35 AM 25.7°F-3.5°C 18.0°F-7.8°C 72% 0.7 mph SSW1.1 kmh SSW 1.1 mph1.8 kmh 29.73 in1006.8 mb 0.00 in0.0 mm 0.00 in0.0 mm 0.00 in0.0 mm
06:40 AM 25.5°F-3.6°C 18.0°F-7.8°C 73% Calm Calm -- 29.73 in1006.8 mb 0.00 in0.0 mm 0.00 in0.0 mm 0.00 in0.0 mm
06:45 AM 25.3°F-3.7°C 18.1°F-7.7°C 74% 0.2 mph SSW0.3 kmh SSW 1.1 mph1.8 kmh 29.73 in1006.8 mb 0.00 in0.0 mm 0.00 in0.0 mm 0.00 in0.0 mm
06:50 AM 25.0°F-3.9°C 18.1°F-7.7°C 75% Calm Calm -- 29.73 in1006.8 mb 0.00 in0.0 mm 0.00 in0.0 mm 0.00 in0.0 mm
06:55 AM 25.2°F-3.8°C 18.0°F-7.8°C 74% 0.2 mph SSW0.3 kmh SSW 1.1 mph1.8 kmh 29.73 in1006.8 mb 0.00 in0.0 mm 0.00 in0.0 mm 0.00 in0.0 mm
07:00 AM 25.3°F-3.7°C 17.8°F-7.9°C 73% Calm Calm -- 29.73 in1006.8 mb 0.00 in0.0 mm 0.00 in0.0 mm 0.00 in0.0 mm
07:05 AM 25.2°F-3.8°C 18.0°F-7.8°C 74% Calm Calm -- 29.73 in1006.8 mb 0.00 in0.0 mm 0.00 in0.0 mm 0.00 in0.0 mm
07:10 AM 25.3°F-3.7°C 18.1°F-7.7°C 74% Calm Calm -- 29.73 in1006.8 mb 0.00 in0.0 mm 0.00 in0.0 mm 0.00 in0.0 mm
07:15 AM 25.3°F-3.7°C 18.1°F-7.7°C 74% Calm Calm -- 29.73 in1006.8 mb 0.00 in0.0 mm 0.00 in0.0 mm 0.00 in0.0 mm
07:20 AM 25.7°F-3.5°C 18.5°F-7.5°C 74% 0.2 mph SSW0.3 kmh SSW 1.1 mph1.8 kmh 29.73 in1006.8 mb 0.00 in0.0 mm 0.00 in0.0 mm 0.00 in0.0 mm
07:25 AM 26.4°F-3.1°C 18.9°F-7.3°C 73% 0.7 mph SSW1.1 kmh SSW 1.1 mph1.8 kmh 29.74 in1007.1 mb 0.00 in0.0 mm 0.00 in0.0 mm 0.00 in0.0 mm
07:30 AM 27.0°F-2.8°C 19.0°F-7.2°C 72% 0.2 mph SSW0.3 kmh SSW 1.1 mph1.8 kmh 29.74 in1007.1 mb 0.00 in0.0 mm 0.00 in0.0 mm 0.00 in0.0 mm
07:35 AM 27.1°F-2.7°C 19.2°F-7.1°C 72% 0.2 mph S0.3 kmh S 1.1 mph1.8 kmh 29.74 in1007.1 mb 0.00 in0.0 mm 0.00 in0.0 mm 0.00 in0.0 mm
07:40 AM 26.6°F-3.0°C 18.7°F-7.4°C 72% 2.0 mph S3.2 kmh S 3.4 mph5.5 kmh 29.74 in1007.1 mb 0.00 in0.0 mm 0.00 in0.0 mm 0.00 in0.0 mm
07:45 AM 26.6°F-3.0°C 18.7°F-7.4°C 72% 1.1 mph SW1.8 kmh SW 2.2 mph3.5 kmh 29.74 in1007.1 mb 0.00 in0.0 mm 0.00 in0.0 mm 0.00 in0.0 mm
07:50 AM 26.4°F-3.1°C 18.5°F-7.5°C 72% 2.2 mph W3.5 kmh W 3.4 mph5.5 kmh 29.74 in1007.1 mb 0.00 in0.0 mm 0.00 in0.0 mm 0.00 in0.0 mm
07:55 AM 26.2°F-3.2°C 18.5°F-7.5°C 72% 1.3 mph WNW2.1 kmh WNW 2.2 mph3.5 kmh 29.73 in1006.8 mb 0.00 in0.0 mm 0.00 in0.0 mm 0.00 in0.0 mm
08:00 AM 26.2°F-3.2°C 18.7°F-7.4°C 73% 0.9 mph ESE1.4 kmh ESE 1.1 mph1.8 kmh 29.75 in1007.5 mb 0.00 in0.0 mm 0.00 in0.0 mm 0.00 in0.0 mm
08:05 AM 27.5°F-2.5°C 19.0°F-7.2°C 70% 1.8 mph SSE2.9 kmh SSE 2.2 mph3.5 kmh 29.74 in1007.1 mb 0.00 in0.0 mm 0.00 in0.0 mm 0.00 in0.0 mm
08:10 AM 27.1°F-2.7°C 19.2°F-7.1°C 72% 0.7 mph SE1.1 kmh SE 1.1 mph1.8 kmh 29.74 in1007.1 mb 0.00 in0.0 mm 0.00 in0.0 mm 0.00 in0.0 mm
08:15 AM 26.8°F-2.9°C 19.2°F-7.1°C 73% Calm Calm -- 29.75 in1007.5 mb 0.00 in0.0 mm 0.00 in0.0 mm 0.00 in0.0 mm
08:20 AM 27.5°F-2.5°C 19.0°F-7.2°C 70% 1.1 mph S1.8 kmh S 1.1 mph1.8 kmh 29.74 in1007.1 mb 0.00 in0.0 mm 0.00 in0.0 mm 0.00 in0.0 mm
08:25 AM 28.6°F-1.9°C 19.4°F-7.0°C 68% Calm Calm -- 29.75 in1007.5 mb 0.00 in0.0 mm 0.00 in0.0 mm 0.00 in0.0 mm
08:30 AM 28.9°F-1.7°C 19.2°F-7.1°C 67% 0.2 mph SSE0.3 kmh SSE 1.1 mph1.8 kmh 29.75 in1007.5 mb 0.00 in0.0 mm 0.00 in0.0 mm 0.00 in0.0 mm
08:35 AM 29.3°F-1.5°C 19.2°F-7.1°C 66% 1.6 mph S2.6 kmh S 2.2 mph3.5 kmh 29.75 in1007.5 mb 0.00 in0.0 mm 0.00 in0.0 mm 0.00 in0.0 mm
08:40 AM 30.6°F-0.8°C 19.4°F-7.0°C 63% 0.2 mph S0.3 kmh S 1.1 mph1.8 kmh 29.76 in1007.8 mb 0.00 in0.0 mm 0.00 in0.0 mm 0.00 in0.0 mm
08:45 AM 30.2°F-1.0°C 19.6°F-6.9°C 64% Calm Calm -- 29.76 in1007.8 mb 0.00 in0.0 mm 0.00 in0.0 mm 0.00 in0.0 mm
08:50 AM 30.6°F-0.8°C 19.4°F-7.0°C 63% 0.2 mph S0.3 kmh S 1.1 mph1.8 kmh 29.76 in1007.8 mb 0.00 in0.0 mm 0.00 in0.0 mm 0.00 in0.0 mm
08:55 AM 30.6°F-0.8°C 19.4°F-7.0°C 63% 1.3 mph SSW2.1 kmh SSW 2.2 mph3.5 kmh 29.76 in1007.8 mb 0.00 in0.0 mm 0.00 in0.0 mm 0.00 in0.0 mm
09:00 AM 30.7°F-0.7°C 19.2°F-7.1°C 62% 2.0 mph SSW3.2 kmh SSW 3.4 mph5.5 kmh 29.76 in1007.8 mb 0.00 in0.0 mm 0.00 in0.0 mm 0.00 in0.0 mm
09:05 AM 31.5°F-0.3°C 19.6°F-6.9°C 61% Calm Calm -- 29.77 in1008.1 mb 0.00 in0.0 mm 0.00 in0.0 mm 0.00 in0.0 mm
09:10 AM 32.4°F0.2°C 19.6°F-6.9°C 59% Calm Calm -- 29.77 in1008.1 mb 0.00 in0.0 mm 0.00 in0.0 mm 0.00 in0.0 mm
09:15 AM 31.5°F-0.3°C 19.6°F-6.9°C 61% 0.7 mph SSW1.1 kmh SSW 1.1 mph1.8 kmh 29.76 in1007.8 mb 0.00 in0.0 mm 0.00 in0.0 mm 0.00 in0.0 mm
09:20 AM 31.3°F-0.4°C 19.8°F-6.8°C 62% 1.3 mph SW2.1 kmh SW 2.2 mph3.5 kmh 29.77 in1008.1 mb 0.00 in0.0 mm 0.00 in0.0 mm 0.00 in0.0 mm
09:25 AM 30.7°F-0.7°C 19.6°F-6.9°C 63% 0.9 mph S1.4 kmh S 1.1 mph1.8 kmh 29.77 in1008.1 mb 0.00 in0.0 mm 0.00 in0.0 mm 0.00 in0.0 mm
09:30 AM 30.7°F-0.7°C 19.2°F-7.1°C 62% Calm Calm -- 29.78 in1008.5 mb 0.00 in0.0 mm 0.00 in0.0 mm 0.00 in0.0 mm
09:35 AM 30.4°F-0.9°C 18.9°F-7.3°C 62% 0.4 mph SSW0.6 kmh SSW 1.1 mph1.8 kmh 29.78 in1008.5 mb 0.00 in0.0 mm 0.00 in0.0 mm 0.00 in0.0 mm
09:40 AM 30.4°F-0.9°C 18.5°F-7.5°C 61% 0.9 mph NE1.4 kmh NE 2.2 mph3.5 kmh 29.78 in1008.5 mb 0.00 in0.0 mm 0.00 in0.0 mm 0.00 in0.0 mm
09:45 AM 30.4°F-0.9°C 18.5°F-7.5°C 61% 0.7 mph WSW1.1 kmh WSW 1.1 mph1.8 kmh 29.78 in1008.5 mb 0.00 in0.0 mm 0.00 in0.0 mm 0.00 in0.0 mm
09:50 AM 30.4°F-0.9°C 18.9°F-7.3°C 62% 0.2 mph SSW0.3 kmh SSW 1.1 mph1.8 kmh 29.79 in1008.8 mb 0.00 in0.0 mm 0.00 in0.0 mm 0.00 in0.0 mm
09:55 AM 30.2°F-1.0°C 18.3°F-7.6°C 61% 0.7 mph S1.1 kmh S 1.1 mph1.8 kmh 29.78 in1008.5 mb 0.00 in0.0 mm 0.00 in0.0 mm 0.00 in0.0 mm
10:00 AM 30.6°F-0.8°C 18.7°F-7.4°C 61% 1.8 mph WSW2.9 kmh WSW 2.2 mph3.5 kmh 29.79 in1008.8 mb 0.00 in0.0 mm 0.00 in0.0 mm 0.00 in0.0 mm
10:05 AM 30.9°F-0.6°C 19.4°F-7.0°C 62% Calm Calm -- 29.78 in1008.5 mb 0.00 in0.0 mm 0.00 in0.0 mm 0.00 in0.0 mm
10:10 AM 31.5°F-0.3°C 19.6°F-6.9°C 61% Calm Calm -- 29.78 in1008.5 mb 0.00 in0.0 mm 0.00 in0.0 mm 0.00 in0.0 mm
10:15 AM 31.8°F-0.1°C 18.7°F-7.4°C 58% 0.7 mph SSW1.1 kmh SSW 1.1 mph1.8 kmh 29.78 in1008.5 mb 0.00 in0.0 mm 0.00 in0.0 mm 0.00 in0.0 mm
10:20 AM 32.5°F0.3°C 18.5°F-7.5°C 56% 0.7 mph SSW1.1 kmh SSW 1.1 mph1.8 kmh 29.78 in1008.5 mb 0.00 in0.0 mm 0.00 in0.0 mm 0.00 in0.0 mm
10:25 AM 32.2°F0.1°C 19.0°F-7.2°C 58% 1.6 mph ENE2.6 kmh ENE 2.2 mph3.5 kmh 29.79 in1008.8 mb 0.00 in0.0 mm 0.00 in0.0 mm 0.00 in0.0 mm
10:30 AM 32.0°F0.0°C 16.9°F-8.4°C 53% 0.9 mph SW1.4 kmh SW 1.1 mph1.8 kmh 29.78 in1008.5 mb 0.00 in0.0 mm 0.00 in0.0 mm 0.00 in0.0 mm
10:35 AM 32.0°F0.0°C 16.3°F-8.7°C 52% 1.6 mph SSW2.6 kmh SSW 2.2 mph3.5 kmh 29.78 in1008.5 mb 0.00 in0.0 mm 0.00 in0.0 mm 0.00 in0.0 mm
10:40 AM 32.7°F0.4°C 18.3°F-7.6°C 55% 0.4 mph SW0.6 kmh SW 1.1 mph1.8 kmh 29.78 in1008.5 mb 0.00 in0.0 mm 0.00 in0.0 mm 0.00 in0.0 mm
10:45 AM 32.5°F0.3°C 20.7°F-6.3°C 61% Calm Calm -- 29.78 in1008.5 mb 0.00 in0.0 mm 0.00 in0.0 mm 0.00 in0.0 mm
10:50 AM 32.9°F0.5°C 20.8°F-6.2°C 61% Calm Calm -- 29.78 in1008.5 mb 0.00 in0.0 mm 0.00 in0.0 mm 0.00 in0.0 mm
10:55 AM 33.1°F0.6°C 21.0°F-6.1°C 61% Calm Calm -- 29.77 in1008.1 mb 0.00 in0.0 mm 0.00 in0.0 mm 0.00 in0.0 mm
11:00 AM 32.5°F0.3°C 20.7°F-6.3°C 61% Calm Calm -- 29.78 in1008.5 mb 0.00 in0.0 mm 0.00 in0.0 mm 0.00 in0.0 mm
11:05 AM 33.1°F0.6°C 19.9°F-6.7°C 58% 2.2 mph SW3.5 kmh SW 3.4 mph5.5 kmh 29.77 in1008.1 mb 0.00 in0.0 mm 0.00 in0.0 mm 0.00 in0.0 mm
11:10 AM 33.4°F0.8°C 20.1°F-6.6°C 58% 0.7 mph SSE1.1 kmh SSE 1.1 mph1.8 kmh 29.77 in1008.1 mb 0.00 in0.0 mm 0.00 in0.0 mm 0.00 in0.0 mm
11:15 AM 33.8°F1.0°C 20.5°F-6.4°C 58% 0.4 mph SSW0.6 kmh SSW 1.1 mph1.8 kmh 29.78 in1008.5 mb 0.00 in0.0 mm 0.00 in0.0 mm 0.00 in0.0 mm
11:20 AM 34.2°F1.2°C 21.4°F-5.9°C 59% 0.7 mph S1.1 kmh S 1.1 mph1.8 kmh 29.77 in1008.1 mb 0.00 in0.0 mm 0.00 in0.0 mm 0.00 in0.0 mm
11:25 AM 35.1°F1.7°C 21.0°F-6.1°C 56% Calm Calm -- 29.78 in1008.5 mb 0.00 in0.0 mm 0.00 in0.0 mm 0.00 in0.0 mm
11:30 AM 34.3°F1.3°C 20.7°F-6.3°C 57% 0.4 mph SE0.6 kmh SE 1.1 mph1.8 kmh 29.79 in1008.8 mb 0.00 in0.0 mm 0.00 in0.0 mm 0.00 in0.0 mm
11:35 AM 32.7°F0.4°C 20.7°F-6.3°C 61% 0.2 mph S0.3 kmh S 1.1 mph1.8 kmh 29.78 in1008.5 mb 0.00 in0.0 mm 0.00 in0.0 mm 0.00 in0.0 mm
11:40 AM 33.1°F0.6°C 20.3°F-6.5°C 59% 0.2 mph SSE0.3 kmh SSE 1.1 mph1.8 kmh 29.77 in1008.1 mb 0.00 in0.0 mm 0.00 in0.0 mm 0.00 in0.0 mm
11:45 AM 33.8°F1.0°C 20.5°F-6.4°C 58% 0.2 mph SSW0.3 kmh SSW 1.1 mph1.8 kmh 29.78 in1008.5 mb 0.00 in0.0 mm 0.00 in0.0 mm 0.00 in0.0 mm
11:50 AM 34.2°F1.2°C 20.5°F-6.4°C 57% 1.1 mph SW1.8 kmh SW 1.1 mph1.8 kmh 29.77 in1008.1 mb 0.00 in0.0 mm 0.00 in0.0 mm 0.00 in0.0 mm
11:55 AM 32.9°F0.5°C 19.8°F-6.8°C 58% 0.4 mph S0.6 kmh S 1.1 mph1.8 kmh 29.77 in1008.1 mb 0.00 in0.0 mm 0.00 in0.0 mm 0.00 in0.0 mm
12:00 PM 33.3°F0.7°C 20.1°F-6.6°C 58% Calm Calm -- 29.77 in1008.1 mb 0.00 in0.0 mm 0.00 in0.0 mm 0.00 in0.0 mm
12:05 PM 32.9°F0.5°C 20.5°F-6.4°C 60% 2.2 mph NW3.5 kmh NW 2.2 mph3.5 kmh 29.77 in1008.1 mb 0.00 in0.0 mm 0.00 in0.0 mm 0.00 in0.0 mm
12:10 PM 32.9°F0.5°C 20.1°F-6.6°C 59% 1.8 mph SE2.9 kmh SE 2.2 mph3.5 kmh 29.78 in1008.5 mb 0.00 in0.0 mm 0.00 in0.0 mm 0.00 in0.0 mm
12:15 PM 32.5°F0.3°C 20.7°F-6.3°C 61% 0.4 mph WNW0.6 kmh WNW 1.1 mph1.8 kmh 29.77 in1008.1 mb 0.00 in0.0 mm 0.00 in0.0 mm 0.00 in0.0 mm
12:20 PM 33.4°F0.8°C 20.1°F-6.6°C 58% 0.7 mph S1.1 kmh S 1.1 mph1.8 kmh 29.77 in1008.1 mb 0.00 in0.0 mm 0.00 in0.0 mm 0.00 in0.0 mm
12:25 PM 34.3°F1.3°C 21.0°F-6.1°C 58% 0.2 mph S0.3 kmh S 1.1 mph1.8 kmh 29.76 in1007.8 mb 0.00 in0.0 mm 0.00 in0.0 mm 0.00 in0.0 mm
12:30 PM 35.4°F1.9°C 21.2°F-6.0°C 56% 0.2 mph S0.3 kmh S 1.1 mph1.8 kmh 29.77 in1008.1 mb 0.00 in0.0 mm 0.00 in0.0 mm 0.00 in0.0 mm
12:35 PM 34.7°F1.5°C 20.7°F-6.3°C 56% 2.7 mph W4.3 kmh W 3.4 mph5.5 kmh 29.77 in1008.1 mb 0.00 in0.0 mm 0.00 in0.0 mm 0.00 in0.0 mm
12:40 PM 35.2°F1.8°C 21.0°F-6.1°C 56% Calm Calm -- 29.76 in1007.8 mb 0.00 in0.0 mm 0.00 in0.0 mm 0.00 in0.0 mm
12:45 PM 36.5°F2.5°C 21.9°F-5.6°C 55% 1.1 mph SSW1.8 kmh SSW 2.2 mph3.5 kmh 29.76 in1007.8 mb 0.00 in0.0 mm 0.00 in0.0 mm 0.00 in0.0 mm
12:50 PM 35.1°F1.7°C 20.5°F-6.4°C 55% 0.9 mph SE1.4 kmh SE 1.1 mph1.8 kmh 29.75 in1007.5 mb 0.00 in0.0 mm 0.00 in0.0 mm 0.00 in0.0 mm
12:55 PM 36.7°F2.6°C 21.6°F-5.8°C 54% Calm Calm -- 29.75 in1007.5 mb 0.00 in0.0 mm 0.00 in0.0 mm 0.00 in0.0 mm
01:00 PM 35.2°F1.8°C 21.0°F-6.1°C 56% 1.3 mph WSW2.1 kmh WSW 2.2 mph3.5 kmh 29.76 in1007.8 mb 0.00 in0.0 mm 0.00 in0.0 mm 0.00 in0.0 mm
01:05 PM 35.2°F1.8°C 20.7°F-6.3°C 55% 0.4 mph S0.6 kmh S 1.1 mph1.8 kmh 29.75 in1007.5 mb 0.00 in0.0 mm 0.00 in0.0 mm 0.00 in0.0 mm
01:10 PM 36.7°F2.6°C 21.2°F-6.0°C 53% 0.2 mph SSW0.3 kmh SSW 1.1 mph1.8 kmh 29.75 in1007.5 mb 0.00 in0.0 mm 0.00 in0.0 mm 0.00 in0.0 mm
01:15 PM 36.3°F2.4°C 22.1°F-5.5°C 56% 0.9 mph WSW1.4 kmh WSW 2.2 mph3.5 kmh 29.76 in1007.8 mb 0.00 in0.0 mm 0.00 in0.0 mm 0.00 in0.0 mm
01:20 PM 35.2°F1.8°C 21.6°F-5.8°C 57% 0.7 mph SSE1.1 kmh SSE 1.1 mph1.8 kmh 29.76 in1007.8 mb 0.00 in0.0 mm 0.00 in0.0 mm 0.00 in0.0 mm
01:25 PM 35.4°F1.9°C 21.7°F-5.7°C 57% 0.7 mph S1.1 kmh S 1.1 mph1.8 kmh 29.77 in1008.1 mb 0.00 in0.0 mm 0.00 in0.0 mm 0.00 in0.0 mm
01:30 PM 35.1°F1.7°C 21.7°F-5.7°C 58% 2.9 mph S4.7 kmh S 4.5 mph7.2 kmh 29.76 in1007.8 mb 0.00 in0.0 mm 0.00 in0.0 mm 0.00 in0.0 mm
01:35 PM 34.2°F1.2°C 22.1°F-5.5°C 61% 0.9 mph SE1.4 kmh SE 2.2 mph3.5 kmh 29.75 in1007.5 mb 0.00 in0.0 mm 0.00 in0.0 mm 0.00 in0.0 mm
01:40 PM 34.5°F1.4°C 22.1°F-5.5°C 60% 0.4 mph S0.6 kmh S 1.1 mph1.8 kmh 29.76 in1007.8 mb 0.00 in0.0 mm 0.00 in0.0 mm 0.00 in0.0 mm
01:45 PM 34.7°F1.5°C 22.6°F-5.2°C 61% 1.6 mph S2.6 kmh S 3.4 mph5.5 kmh 29.77 in1008.1 mb 0.00 in0.0 mm 0.00 in0.0 mm 0.00 in0.0 mm
01:50 PM 34.5°F1.4°C 22.5°F-5.3°C 61% 1.1 mph S1.8 kmh S 1.1 mph1.8 kmh 29.76 in1007.8 mb 0.00 in0.0 mm 0.00 in0.0 mm 0.00 in0.0 mm
01:55 PM 34.2°F1.2°C 22.1°F-5.5°C 61% 0.2 mph SSW0.3 kmh SSW 1.1 mph1.8 kmh 29.76 in1007.8 mb 0.00 in0.0 mm 0.00 in0.0 mm 0.00 in0.0 mm
02:00 PM 34.3°F1.3°C 22.6°F-5.2°C 62% 0.7 mph SSW1.1 kmh SSW 1.1 mph1.8 kmh 29.76 in1007.8 mb 0.00 in0.0 mm 0.00 in0.0 mm 0.00 in0.0 mm
02:05 PM 34.7°F1.5°C 22.6°F-5.2°C 61% 0.7 mph SSW1.1 kmh SSW 2.2 mph3.5 kmh 29.76 in1007.8 mb 0.00 in0.0 mm 0.00 in0.0 mm 0.00 in0.0 mm
02:10 PM 34.9°F1.6°C 23.2°F-4.9°C 62% 0.4 mph SSW0.6 kmh SSW 1.1 mph1.8 kmh 29.76 in1007.8 mb 0.00 in0.0 mm 0.00 in0.0 mm 0.00 in0.0 mm
02:15 PM 34.5°F1.4°C 23.5°F-4.7°C 64% 0.4 mph SE0.6 kmh SE 1.1 mph1.8 kmh 29.77 in1008.1 mb 0.00 in0.0 mm 0.00 in0.0 mm 0.00 in0.0 mm
02:20 PM 34.5°F1.4°C 23.5°F-4.7°C 64% 1.8 mph SSW2.9 kmh SSW 3.4 mph5.5 kmh 29.77 in1008.1 mb 0.00 in0.0 mm 0.00 in0.0 mm 0.00 in0.0 mm
02:25 PM 34.3°F1.3°C 24.1°F-4.4°C 66% 0.2 mph SSE0.3 kmh SSE 1.1 mph1.8 kmh 29.76 in1007.8 mb 0.00 in0.0 mm 0.00 in0.0 mm 0.00 in0.0 mm
02:30 PM 34.2°F1.2°C 24.3°F-4.3°C 67% 0.7 mph WSW1.1 kmh WSW 1.1 mph1.8 kmh 29.77 in1008.1 mb 0.00 in0.0 mm 0.00 in0.0 mm 0.00 in0.0 mm
02:35 PM 34.2°F1.2°C 24.3°F-4.3°C 67% 0.9 mph SE1.4 kmh SE 2.2 mph3.5 kmh 29.76 in1007.8 mb 0.00 in0.0 mm 0.00 in0.0 mm 0.00 in0.0 mm
02:40 PM 34.2°F1.2°C 24.3°F-4.3°C 67% 1.3 mph SW2.1 kmh SW 2.2 mph3.5 kmh 29.77 in1008.1 mb 0.00 in0.0 mm 0.00 in0.0 mm 0.00 in0.0 mm
02:45 PM 33.6°F0.9°C 24.3°F-4.3°C 68% 0.2 mph S0.3 kmh S 1.1 mph1.8 kmh 29.77 in1008.1 mb 0.00 in0.0 mm 0.00 in0.0 mm 0.00 in0.0 mm
02:50 PM 33.6°F0.9°C 24.3°F-4.3°C 68% 1.1 mph S1.8 kmh S 2.2 mph3.5 kmh 29.77 in1008.1 mb 0.00 in0.0 mm 0.00 in0.0 mm 0.00 in0.0 mm
02:55 PM 33.4°F0.8°C 23.5°F-4.7°C 67% 0.7 mph ESE1.1 kmh ESE 1.1 mph1.8 kmh 29.77 in1008.1 mb 0.00 in0.0 mm 0.00 in0.0 mm 0.00 in0.0 mm
03:00 PM 33.4°F0.8°C 23.5°F-4.7°C 67% 1.3 mph W2.1 kmh W 2.2 mph3.5 kmh 29.77 in1008.1 mb 0.00 in0.0 mm 0.00 in0.0 mm 0.00 in0.0 mm
03:05 PM 33.4°F0.8°C 23.5°F-4.7°C 67% Calm Calm -- 29.78 in1008.5 mb 0.00 in0.0 mm 0.00 in0.0 mm 0.00 in0.0 mm
03:10 PM 33.8°F1.0°C 23.9°F-4.5°C 67% Calm Calm -- 29.78 in1008.5 mb 0.00 in0.0 mm 0.00 in0.0 mm 0.00 in0.0 mm
03:15 PM 33.8°F1.0°C 24.4°F-4.2°C 68% Calm Calm -- 29.77 in1008.1 mb 0.00 in0.0 mm 0.00 in0.0 mm 0.00 in0.0 mm
03:20 PM 33.8°F1.0°C 24.4°F-4.2°C 68% Calm Calm -- 29.77 in1008.1 mb 0.00 in0.0 mm 0.00 in0.0 mm 0.00 in0.0 mm
03:25 PM 33.4°F0.8°C 23.5°F-4.7°C 67% 0.7 mph SE1.1 kmh SE 1.1 mph1.8 kmh 29.78 in1008.5 mb 0.00 in0.0 mm 0.00 in0.0 mm 0.00 in0.0 mm
03:30 PM 33.3°F0.7°C 24.4°F-4.2°C 70% 1.8 mph SSW2.9 kmh SSW 2.2 mph3.5 kmh 29.78 in1008.5 mb 0.00 in0.0 mm 0.00 in0.0 mm 0.00 in0.0 mm
03:35 PM 32.7°F0.4°C 23.9°F-4.5°C 70% 2.2 mph SSW3.5 kmh SSW 4.5 mph7.2 kmh 29.78 in1008.5 mb 0.00 in0.0 mm 0.00 in0.0 mm 0.00 in0.0 mm
03:40 PM 32.7°F0.4°C 24.3°F-4.3°C 71% 2.5 mph WSW4.0 kmh WSW 3.4 mph5.5 kmh 29.78 in1008.5 mb 0.00 in0.0 mm 0.00 in0.0 mm 0.00 in0.0 mm
03:45 PM 32.5°F0.3°C 24.1°F-4.4°C 71% 0.9 mph SE1.4 kmh SE 1.1 mph1.8 kmh 29.77 in1008.1 mb 0.00 in0.0 mm 0.00 in0.0 mm 0.00 in0.0 mm
03:50 PM 32.4°F0.2°C 23.9°F-4.5°C 71% 0.9 mph SSE1.4 kmh SSE 1.1 mph1.8 kmh 29.78 in1008.5 mb 0.00 in0.0 mm 0.00 in0.0 mm 0.00 in0.0 mm
03:55 PM 32.2°F0.1°C 24.1°F-4.4°C 72% 0.4 mph SSW0.6 kmh SSW 1.1 mph1.8 kmh 29.78 in1008.5 mb 0.00 in0.0 mm 0.00 in0.0 mm 0.00 in0.0 mm
04:00 PM 31.8°F-0.1°C 24.1°F-4.4°C 73% 1.6 mph S2.6 kmh S 2.2 mph3.5 kmh 29.78 in1008.5 mb 0.00 in0.0 mm 0.00 in0.0 mm 0.00 in0.0 mm
04:05 PM 31.6°F-0.2°C 23.9°F-4.5°C 73% 1.3 mph WNW2.1 kmh WNW 3.4 mph5.5 kmh 29.78 in1008.5 mb 0.00 in0.0 mm 0.00 in0.0 mm 0.00 in0.0 mm
04:10 PM 31.3°F-0.4°C 23.9°F-4.5°C 74% 1.6 mph SSW2.6 kmh SSW 2.2 mph3.5 kmh 29.78 in1008.5 mb 0.00 in0.0 mm 0.00 in0.0 mm 0.00 in0.0 mm
04:15 PM 31.1°F-0.5°C 24.1°F-4.4°C 75% 0.2 mph SSE0.3 kmh SSE 1.1 mph1.8 kmh 29.78 in1008.5 mb 0.00 in0.0 mm 0.00 in0.0 mm 0.00 in0.0 mm
04:20 PM 30.7°F-0.7°C 24.1°F-4.4°C 76% 0.7 mph S1.1 kmh S 1.1 mph1.8 kmh 29.78 in1008.5 mb 0.00 in0.0 mm 0.00 in0.0 mm 0.00 in0.0 mm
04:25 PM 30.7°F-0.7°C 24.3°F-4.3°C 77% 0.2 mph SE0.3 kmh SE 1.1 mph1.8 kmh 29.78 in1008.5 mb 0.00 in0.0 mm 0.00 in0.0 mm 0.00 in0.0 mm
04:30 PM 30.4°F-0.9°C 24.3°F-4.3°C 78% 0.4 mph S0.6 kmh S 1.1 mph1.8 kmh 29.78 in1008.5 mb 0.00 in0.0 mm 0.00 in0.0 mm 0.00 in0.0 mm
04:35 PM 30.2°F-1.0°C 24.4°F-4.2°C 79% 0.9 mph SSE1.4 kmh SSE 1.1 mph1.8 kmh 29.79 in1008.8 mb 0.00 in0.0 mm 0.00 in0.0 mm 0.00 in0.0 mm
04:40 PM 30.0°F-1.1°C 24.3°F-4.3°C 79% 1.3 mph SE2.1 kmh SE 2.2 mph3.5 kmh 29.78 in1008.5 mb 0.00 in0.0 mm 0.00 in0.0 mm 0.00 in0.0 mm
04:45 PM 29.8°F-1.2°C 24.1°F-4.4°C 79% 0.2 mph SSW0.3 kmh SSW 1.1 mph1.8 kmh 29.78 in1008.5 mb 0.00 in0.0 mm 0.00 in0.0 mm 0.00 in0.0 mm
04:50 PM 29.7°F-1.3°C 24.3°F-4.3°C 80% 0.2 mph SSW0.3 kmh SSW 1.1 mph1.8 kmh 29.78 in1008.5 mb 0.00 in0.0 mm 0.00 in0.0 mm 0.00 in0.0 mm
04:55 PM 29.5°F-1.4°C 23.7°F-4.6°C 79% 1.1 mph WSW1.8 kmh WSW 2.2 mph3.5 kmh 29.78 in1008.5 mb 0.00 in0.0 mm 0.00 in0.0 mm 0.00 in0.0 mm
05:00 PM 29.7°F-1.3°C 23.9°F-4.5°C 79% 1.3 mph SW2.1 kmh SW 2.2 mph3.5 kmh 29.78 in1008.5 mb 0.00 in0.0 mm 0.00 in0.0 mm 0.00 in0.0 mm
05:05 PM 29.7°F-1.3°C 23.9°F-4.5°C 79% 0.7 mph WSW1.1 kmh WSW 1.1 mph1.8 kmh 29.78 in1008.5 mb 0.00 in0.0 mm 0.00 in0.0 mm 0.00 in0.0 mm
05:10 PM 29.3°F-1.5°C 23.5°F-4.7°C 79% 0.2 mph S0.3 kmh S 1.1 mph1.8 kmh 29.78 in1008.5 mb 0.00 in0.0 mm 0.00 in0.0 mm 0.00 in0.0 mm
05:15 PM 28.9°F-1.7°C 23.5°F-4.7°C 80% 1.8 mph SW2.9 kmh SW 3.4 mph5.5 kmh 29.78 in1008.5 mb 0.00 in0.0 mm 0.00 in0.0 mm 0.00 in0.0 mm
05:20 PM 28.9°F-1.7°C 23.5°F-4.7°C 80% Calm Calm -- 29.78 in1008.5 mb 0.00 in0.0 mm 0.00 in0.0 mm 0.00 in0.0 mm
05:25 PM 28.8°F-1.8°C 23.4°F-4.8°C 80% Calm Calm -- 29.79 in1008.8 mb 0.00 in0.0 mm 0.00 in0.0 mm 0.00 in0.0 mm
05:30 PM 28.6°F-1.9°C 23.2°F-4.9°C 80% Calm Calm -- 29.78 in1008.5 mb 0.00 in0.0 mm 0.00 in0.0 mm 0.00 in0.0 mm
05:35 PM 28.4°F-2.0°C 23.0°F-5.0°C 80% Calm Calm -- 29.78 in1008.5 mb 0.00 in0.0 mm 0.00 in0.0 mm 0.00 in0.0 mm
05:40 PM 28.0°F-2.2°C 23.0°F-5.0°C 81% Calm Calm -- 29.80 in1009.1 mb 0.00 in0.0 mm 0.00 in0.0 mm 0.00 in0.0 mm
05:45 PM 28.2°F-2.1°C 22.8°F-5.1°C 80% 0.7 mph S1.1 kmh S 1.1 mph1.8 kmh 29.79 in1008.8 mb 0.00 in0.0 mm 0.00 in0.0 mm 0.00 in0.0 mm
05:50 PM 28.2°F-2.1°C 22.8°F-5.1°C 80% Calm Calm -- 29.79 in1008.8 mb 0.00 in0.0 mm 0.00 in0.0 mm 0.00 in0.0 mm
05:55 PM 28.0°F-2.2°C 22.6°F-5.2°C 80% 0.4 mph SSW0.6 kmh SSW 1.1 mph1.8 kmh 29.80 in1009.1 mb 0.00 in0.0 mm 0.00 in0.0 mm 0.00 in0.0 mm
06:00 PM 28.0°F-2.2°C 22.6°F-5.2°C 80% 0.2 mph SSW0.3 kmh SSW 1.1 mph1.8 kmh 29.80 in1009.1 mb 0.00 in0.0 mm 0.00 in0.0 mm 0.00 in0.0 mm
06:05 PM 28.2°F-2.1°C 22.5°F-5.3°C 79% 0.2 mph SSW0.3 kmh SSW 1.1 mph1.8 kmh 29.80 in1009.1 mb 0.00 in0.0 mm 0.00 in0.0 mm 0.00 in0.0 mm
06:10 PM 28.0°F-2.2°C 22.6°F-5.2°C 80% 0.2 mph SSW0.3 kmh SSW 1.1 mph1.8 kmh 29.80 in1009.1 mb 0.00 in0.0 mm 0.00 in0.0 mm 0.00 in0.0 mm
06:15 PM 27.7°F-2.4°C 22.3°F-5.4°C 80% Calm Calm -- 29.80 in1009.1 mb 0.00 in0.0 mm 0.00 in0.0 mm 0.00 in0.0 mm
06:20 PM 27.3°F-2.6°C 22.3°F-5.4°C 81% 0.2 mph SSW0.3 kmh SSW 1.1 mph1.8 kmh 29.81 in1009.5 mb 0.00 in0.0 mm 0.00 in0.0 mm 0.00 in0.0 mm
06:25 PM 27.0°F-2.8°C 22.1°F-5.5°C 82% Calm Calm -- 29.81 in1009.5 mb 0.00 in0.0 mm 0.00 in0.0 mm 0.00 in0.0 mm
06:30 PM 26.6°F-3.0°C 22.1°F-5.5°C 83% Calm Calm -- 29.81 in1009.5 mb 0.00 in0.0 mm 0.00 in0.0 mm 0.00 in0.0 mm
06:35 PM 26.6°F-3.0°C 22.1°F-5.5°C 83% Calm Calm -- 29.80 in1009.1 mb 0.00 in0.0 mm 0.00 in0.0 mm 0.00 in0.0 mm
06:40 PM 26.6°F-3.0°C 22.1°F-5.5°C 83% Calm Calm -- 29.81 in1009.5 mb 0.00 in0.0 mm 0.00 in0.0 mm 0.00 in0.0 mm
06:45 PM 26.4°F-3.1°C 21.9°F-5.6°C 83% Calm Calm -- 29.81 in1009.5 mb 0.00 in0.0 mm 0.00 in0.0 mm 0.00 in0.0 mm
06:50 PM 26.2°F-3.2°C 22.1°F-5.5°C 84% Calm Calm -- 29.81 in1009.5 mb 0.00 in0.0 mm 0.00 in0.0 mm 0.00 in0.0 mm
06:55 PM 26.1°F-3.3°C 21.9°F-5.6°C 84% Calm Calm -- 29.81 in1009.5 mb 0.00 in0.0 mm 0.00 in0.0 mm 0.00 in0.0 mm
07:00 PM 25.7°F-3.5°C 21.6°F-5.8°C 84% Calm Calm -- 29.81 in1009.5 mb 0.00 in0.0 mm 0.00 in0.0 mm 0.00 in0.0 mm
07:05 PM 25.5°F-3.6°C 21.4°F-5.9°C 84% Calm Calm -- 29.81 in1009.5 mb 0.00 in0.0 mm 0.00 in0.0 mm 0.00 in0.0 mm
07:10 PM 25.5°F-3.6°C 21.4°F-5.9°C 84% Calm Calm -- 29.81 in1009.5 mb 0.00 in0.0 mm 0.00 in0.0 mm 0.00 in0.0 mm
07:15 PM 25.7°F-3.5°C 21.6°F-5.8°C 84% Calm Calm -- 29.81 in1009.5 mb 0.00 in0.0 mm 0.00 in0.0 mm 0.00 in0.0 mm
07:20 PM 25.2°F-3.8°C 21.4°F-5.9°C 85% Calm Calm -- 29.81 in1009.5 mb 0.00 in0.0 mm 0.00 in0.0 mm 0.00 in0.0 mm
07:25 PM 24.8°F-4.0°C 21.0°F-6.1°C 85% Calm Calm -- 29.81 in1009.5 mb 0.00 in0.0 mm 0.00 in0.0 mm 0.00 in0.0 mm
07:30 PM 24.6°F-4.1°C 21.0°F-6.1°C 86% Calm Calm -- 29.82 in1009.8 mb 0.00 in0.0 mm 0.00 in0.0 mm 0.00 in0.0 mm
07:35 PM 25.3°F-3.7°C 21.7°F-5.7°C 86% Calm Calm -- 29.81 in1009.5 mb 0.00 in0.0 mm 0.00 in0.0 mm 0.00 in0.0 mm
07:40 PM 25.0°F-3.9°C 21.6°F-5.8°C 87% Calm Calm -- 29.81 in1009.5 mb 0.00 in0.0 mm 0.00 in0.0 mm 0.00 in0.0 mm
07:45 PM 24.6°F-4.1°C 21.2°F-6.0°C 87% Calm Calm -- 29.81 in1009.5 mb 0.00 in0.0 mm 0.00 in0.0 mm 0.00 in0.0 mm
07:50 PM 24.4°F-4.2°C 21.0°F-6.1°C 87% Calm Calm -- 29.82 in1009.8 mb 0.00 in0.0 mm 0.00 in0.0 mm 0.00 in0.0 mm
07:55 PM 24.4°F-4.2°C 21.0°F-6.1°C 87% Calm Calm -- 29.81 in1009.5 mb 0.00 in0.0 mm 0.00 in0.0 mm 0.00 in0.0 mm
08:00 PM 24.6°F-4.1°C 21.4°F-5.9°C 88% Calm Calm -- 29.81 in1009.5 mb 0.00 in0.0 mm 0.00 in0.0 mm 0.00 in0.0 mm
08:05 PM 24.3°F-4.3°C 21.4°F-5.9°C 89% Calm Calm -- 29.81 in1009.5 mb 0.00 in0.0 mm 0.00 in0.0 mm 0.00 in0.0 mm
08:10 PM 24.4°F-4.2°C 21.6°F-5.8°C 89% Calm Calm -- 29.82 in1009.8 mb 0.00 in0.0 mm 0.00 in0.0 mm 0.00 in0.0 mm
08:15 PM 24.3°F-4.3°C 21.4°F-5.9°C 89% Calm Calm -- 29.82 in1009.8 mb 0.00 in0.0 mm 0.00 in0.0 mm 0.00 in0.0 mm
08:20 PM 24.4°F-4.2°C 21.6°F-5.8°C 89% Calm Calm -- 29.82 in1009.8 mb 0.00 in0.0 mm 0.00 in0.0 mm 0.00 in0.0 mm
08:25 PM 23.9°F-4.5°C 21.0°F-6.1°C 89% Calm Calm -- 29.82 in1009.8 mb 0.00 in0.0 mm 0.00 in0.0 mm 0.00 in0.0 mm
08:30 PM 23.5°F-4.7°C 20.7°F-6.3°C 89% Calm Calm -- 29.81 in1009.5 mb 0.00 in0.0 mm 0.00 in0.0 mm 0.00 in0.0 mm
08:35 PM 24.1°F-4.4°C 21.2°F-6.0°C 89% Calm Calm -- 29.81 in1009.5 mb 0.00 in0.0 mm 0.00 in0.0 mm 0.00 in0.0 mm
08:40 PM 24.4°F-4.2°C 21.2°F-6.0°C 88% 0.7 mph SW1.1 kmh SW 1.1 mph1.8 kmh 29.81 in1009.5 mb 0.00 in0.0 mm 0.00 in0.0 mm 0.00 in0.0 mm
08:45 PM 24.8°F-4.0°C 21.4°F-5.9°C 87% 0.2 mph SSW0.3 kmh SSW 1.1 mph1.8 kmh 29.82 in1009.8 mb 0.00 in0.0 mm 0.00 in0.0 mm 0.00 in0.0 mm
08:50 PM 25.0°F-3.9°C 21.4°F-5.9°C 86% Calm Calm -- 29.81 in1009.5 mb 0.00 in0.0 mm 0.00 in0.0 mm 0.00 in0.0 mm
08:55 PM 24.8°F-4.0°C 21.4°F-5.9°C 87% Calm Calm -- 29.82 in1009.8 mb 0.00 in0.0 mm 0.00 in0.0 mm 0.00 in0.0 mm
09:00 PM 24.6°F-4.1°C 21.4°F-5.9°C 88% Calm Calm -- 29.82 in1009.8 mb 0.00 in0.0 mm 0.00 in0.0 mm 0.00 in0.0 mm
09:05 PM 24.4°F-4.2°C 21.2°F-6.0°C 88% Calm Calm -- 29.82 in1009.8 mb 0.00 in0.0 mm 0.00 in0.0 mm 0.00 in0.0 mm
09:10 PM 24.4°F-4.2°C 21.0°F-6.1°C 87% Calm Calm -- 29.82 in1009.8 mb 0.00 in0.0 mm 0.00 in0.0 mm 0.00 in0.0 mm
09:15 PM 24.6°F-4.1°C 21.0°F-6.1°C 86% Calm Calm -- 29.82 in1009.8 mb 0.00 in0.0 mm 0.00 in0.0 mm 0.00 in0.0 mm
09:20 PM 24.8°F-4.0°C 21.2°F-6.0°C 86% Calm Calm -- 29.82 in1009.8 mb 0.00 in0.0 mm 0.00 in0.0 mm 0.00 in0.0 mm
09:25 PM 24.8°F-4.0°C 21.2°F-6.0°C 86% Calm Calm -- 29.82 in1009.8 mb 0.00 in0.0 mm 0.00 in0.0 mm 0.00 in0.0 mm
09:30 PM 24.6°F-4.1°C 21.0°F-6.1°C 86% Calm Calm -- 29.82 in1009.8 mb 0.00 in0.0 mm 0.00 in0.0 mm 0.00 in0.0 mm
09:35 PM 24.8°F-4.0°C 21.2°F-6.0°C 86% Calm Calm -- 29.82 in1009.8 mb 0.00 in0.0 mm 0.00 in0.0 mm 0.00 in0.0 mm
09:40 PM 24.8°F-4.0°C 21.2°F-6.0°C 86% Calm Calm -- 29.83 in1010.2 mb 0.00 in0.0 mm 0.00 in0.0 mm 0.00 in0.0 mm
09:45 PM 24.8°F-4.0°C 21.2°F-6.0°C 86% Calm Calm -- 29.82 in1009.8 mb 0.00 in0.0 mm 0.00 in0.0 mm 0.00 in0.0 mm
09:50 PM 25.0°F-3.9°C 21.4°F-5.9°C 86% Calm Calm -- 29.82 in1009.8 mb 0.00 in0.0 mm 0.00 in0.0 mm 0.00 in0.0 mm
09:55 PM 25.0°F-3.9°C 21.2°F-6.0°C 85% 0.2 mph S0.3 kmh S 1.1 mph1.8 kmh 29.83 in1010.2 mb 0.00 in0.0 mm 0.00 in0.0 mm 0.00 in0.0 mm
10:00 PM 25.3°F-3.7°C 21.2°F-6.0°C 84% Calm Calm -- 29.83 in1010.2 mb 0.00 in0.0 mm 0.00 in0.0 mm 0.00 in0.0 mm
10:05 PM 25.5°F-3.6°C 21.0°F-6.1°C 83% Calm Calm -- 29.83 in1010.2 mb 0.00 in0.0 mm 0.00 in0.0 mm 0.00 in0.0 mm
10:10 PM 25.3°F-3.7°C 21.2°F-6.0°C 84% Calm Calm -- 29.83 in1010.2 mb 0.00 in0.0 mm 0.00 in0.0 mm 0.00 in0.0 mm
10:15 PM 24.8°F-4.0°C 21.0°F-6.1°C 85% Calm Calm -- 29.83 in1010.2 mb 0.00 in0.0 mm 0.00 in0.0 mm 0.00 in0.0 mm
10:20 PM 24.6°F-4.1°C 20.8°F-6.2°C 85% Calm Calm -- 29.83 in1010.2 mb 0.00 in0.0 mm 0.00 in0.0 mm 0.00 in0.0 mm
10:25 PM 24.4°F-4.2°C 20.8°F-6.2°C 86% Calm Calm -- 29.83 in1010.2 mb 0.00 in0.0 mm 0.00 in0.0 mm 0.00 in0.0 mm
10:30 PM 24.3°F-4.3°C 20.8°F-6.2°C 87% Calm Calm -- 29.83 in1010.2 mb 0.00 in0.0 mm 0.00 in0.0 mm 0.00 in0.0 mm
10:35 PM 24.1°F-4.4°C 20.7°F-6.3°C 87% Calm Calm -- 29.83 in1010.2 mb 0.00 in0.0 mm 0.00 in0.0 mm 0.00 in0.0 mm
10:40 PM 23.9°F-4.5°C 20.7°F-6.3°C 88% Calm Calm -- 29.83 in1010.2 mb 0.00 in0.0 mm 0.00 in0.0 mm 0.00 in0.0 mm
10:45 PM 24.1°F-4.4°C 20.8°F-6.2°C 88% Calm Calm -- 29.83 in1010.2 mb 0.00 in0.0 mm 0.00 in0.0 mm 0.00 in0.0 mm
10:50 PM 24.3°F-4.3°C 21.0°F-6.1°C 88% Calm Calm -- 29.82 in1009.8 mb 0.00 in0.0 mm 0.00 in0.0 mm 0.00 in0.0 mm
10:55 PM 24.1°F-4.4°C 20.8°F-6.2°C 88% Calm Calm -- 29.83 in1010.2 mb 0.00 in0.0 mm 0.00 in0.0 mm 0.00 in0.0 mm
11:00 PM 23.7°F-4.6°C 20.5°F-6.4°C 88% Calm Calm -- 29.83 in1010.2 mb 0.00 in0.0 mm 0.00 in0.0 mm 0.00 in0.0 mm
11:05 PM 23.7°F-4.6°C 20.8°F-6.2°C 89% 0.9 mph S1.4 kmh S 1.1 mph1.8 kmh 29.83 in1010.2 mb 0.00 in0.0 mm 0.00 in0.0 mm 0.00 in0.0 mm
11:10 PM 24.1°F-4.4°C 21.2°F-6.0°C 89% Calm Calm -- 29.82 in1009.8 mb 0.00 in0.0 mm 0.00 in0.0 mm 0.00 in0.0 mm
11:15 PM 23.9°F-4.5°C 21.0°F-6.1°C 89% Calm Calm -- 29.83 in1010.2 mb 0.00 in0.0 mm 0.00 in0.0 mm 0.00 in0.0 mm
11:20 PM 24.1°F-4.4°C 21.2°F-6.0°C 89% 1.3 mph S2.1 kmh S 2.2 mph3.5 kmh 29.83 in1010.2 mb 0.00 in0.0 mm 0.00 in0.0 mm 0.00 in0.0 mm
11:25 PM 24.3°F-4.3°C 21.4°F-5.9°C 89% 1.3 mph S2.1 kmh S 2.2 mph3.5 kmh 29.81 in1009.5 mb 0.00 in0.0 mm 0.00 in0.0 mm 0.00 in0.0 mm
11:30 PM 24.3°F-4.3°C 21.0°F-6.1°C 88% Calm Calm -- 29.82 in1009.8 mb 0.00 in0.0 mm 0.00 in0.0 mm 0.00 in0.0 mm
11:35 PM 24.1°F-4.4°C 20.8°F-6.2°C 88% Calm Calm -- 29.83 in1010.2 mb 0.00 in0.0 mm 0.00 in0.0 mm 0.00 in0.0 mm
11:40 PM 24.1°F-4.4°C 20.8°F-6.2°C 88% 0.4 mph SW0.6 kmh SW 1.1 mph1.8 kmh 29.82 in1009.8 mb 0.00 in0.0 mm 0.00 in0.0 mm 0.00 in0.0 mm
11:45 PM 24.3°F-4.3°C 20.8°F-6.2°C 87% Calm Calm -- 29.82 in1009.8 mb 0.00 in0.0 mm 0.00 in0.0 mm 0.00 in0.0 mm
11:50 PM 24.3°F-4.3°C 20.8°F-6.2°C 87% Calm Calm -- 29.82 in1009.8 mb 0.00 in0.0 mm 0.00 in0.0 mm 0.00 in0.0 mm
11:55 PM 24.6°F-4.1°C 21.2°F-6.0°C 87% 0.7 mph SW1.1 kmh SW 1.1 mph1.8 kmh 29.82 in1009.8 mb 0.00 in0.0 mm 0.00 in0.0 mm 0.00 in0.0 mm